sensor_id;sensor_type;location;lat;lon;timestamp;temperature;humidity
29341;DHT22;16337;59.536;13.468;2023-03-12T00:00:48;-8.50;99.90
29341;DHT22;16337;59.536;13.468;2023-03-12T00:03:14;-8.60;99.90
29341;DHT22;16337;59.536;13.468;2023-03-12T00:05:41;-8.60;99.90
29341;DHT22;16337;59.536;13.468;2023-03-12T00:08:08;-8.70;99.90
29341;DHT22;16337;59.536;13.468;2023-03-12T00:10:34;-8.70;99.90
29341;DHT22;16337;59.536;13.468;2023-03-12T00:13:00;-8.80;99.90
29341;DHT22;16337;59.536;13.468;2023-03-12T00:15:26;-8.80;99.90
29341;DHT22;16337;59.536;13.468;2023-03-12T00:17:52;-8.70;99.90
29341;DHT22;16337;59.536;13.468;2023-03-12T00:20:18;-8.40;99.90
29341;DHT22;16337;59.536;13.468;2023-03-12T00:22:44;-8.10;99.90
29341;DHT22;16337;59.536;13.468;2023-03-12T00:25:13;-8.00;99.90
29341;DHT22;16337;59.536;13.468;2023-03-12T00:27:40;-8.10;99.90
29341;DHT22;16337;59.536;13.468;2023-03-12T00:30:07;-8.10;99.90
29341;DHT22;16337;59.536;13.468;2023-03-12T00:32:34;-8.10;99.90
29341;DHT22;16337;59.536;13.468;2023-03-12T00:37:45;-7.90;99.90
29341;DHT22;16337;59.536;13.468;2023-03-12T00:40:12;-7.90;99.90
29341;DHT22;16337;59.536;13.468;2023-03-12T00:42:37;-8.00;99.90
29341;DHT22;16337;59.536;13.468;2023-03-12T00:45:03;-8.20;99.90
29341;DHT22;16337;59.536;13.468;2023-03-12T00:47:29;-8.10;99.90
29341;DHT22;16337;59.536;13.468;2023-03-12T00:49:55;-8.30;99.90
29341;DHT22;16337;59.536;13.468;2023-03-12T00:52:21;-8.40;99.90
29341;DHT22;16337;59.536;13.468;2023-03-12T00:54:46;-8.40;99.90
29341;DHT22;16337;59.536;13.468;2023-03-12T00:57:12;-8.50;99.90
29341;DHT22;16337;59.536;13.468;2023-03-12T00:59:38;-8.40;99.90
29341;DHT22;16337;59.536;13.468;2023-03-12T01:02:06;-8.40;99.90
29341;DHT22;16337;59.536;13.468;2023-03-12T01:04:35;-8.60;99.90
29341;DHT22;16337;59.536;13.468;2023-03-12T01:07:00;-8.70;99.90
29341;DHT22;16337;59.536;13.468;2023-03-12T01:09:26;-8.80;99.90
29341;DHT22;16337;59.536;13.468;2023-03-12T01:11:54;-8.80;99.90
29341;DHT22;16337;59.536;13.468;2023-03-12T01:14:20;-8.70;99.90
29341;DHT22;16337;59.536;13.468;2023-03-12T01:16:46;-8.60;99.90
29341;DHT22;16337;59.536;13.468;2023-03-12T01:19:12;-8.50;99.90
29341;DHT22;16337;59.536;13.468;2023-03-12T01:21:38;-8.40;99.90
29341;DHT22;16337;59.536;13.468;2023-03-12T01:24:04;-8.50;99.90
29341;DHT22;16337;59.536;13.468;2023-03-12T01:26:29;-8.60;99.90
29341;DHT22;16337;59.536;13.468;2023-03-12T01:28:55;-8.60;99.90
29341;DHT22;16337;59.536;13.468;2023-03-12T01:31:21;-8.60;99.90
29341;DHT22;16337;59.536;13.468;2023-03-12T01:33:49;-8.80;99.90
29341;DHT22;16337;59.536;13.468;2023-03-12T01:36:17;-8.80;99.90
29341;DHT22;16337;59.536;13.468;2023-03-12T01:38:43;-8.80;99.90
29341;DHT22;16337;59.536;13.468;2023-03-12T01:41:09;-8.70;99.90
29341;DHT22;16337;59.536;13.468;2023-03-12T01:43:37;-8.70;99.90
29341;DHT22;16337;59.536;13.468;2023-03-12T01:46:22;-8.60;99.90
29341;DHT22;16337;59.536;13.468;2023-03-12T01:49:13;-8.60;99.90
29341;DHT22;16337;59.536;13.468;2023-03-12T01:52:02;-8.60;99.90
29341;DHT22;16337;59.536;13.468;2023-03-12T01:57:01;-8.70;99.90
29341;DHT22;16337;59.536;13.468;2023-03-12T01:59:34;-8.80;99.90
29341;DHT22;16337;59.536;13.468;2023-03-12T02:04:32;-9.00;99.90
29341;DHT22;16337;59.536;13.468;2023-03-12T02:07:08;-9.00;99.90
29341;DHT22;16337;59.536;13.468;2023-03-12T02:09:37;-9.20;99.90
29341;DHT22;16337;59.536;13.468;2023-03-12T02:12:04;-9.20;99.90
29341;DHT22;16337;59.536;13.468;2023-03-12T02:14:30;-9.30;99.90
29341;DHT22;16337;59.536;13.468;2023-03-12T02:16:57;-9.30;99.90
29341;DHT22;16337;59.536;13.468;2023-03-12T02:21:58;-9.50;99.90
29341;DHT22;16337;59.536;13.468;2023-03-12T02:24:29;-9.60;99.90
29341;DHT22;16337;59.536;13.468;2023-03-12T02:26:58;-9.50;99.90
29341;DHT22;16337;59.536;13.468;2023-03-12T02:29:26;-9.60;99.90
29341;DHT22;16337;59.536;13.468;2023-03-12T02:31:54;-9.60;99.90
29341;DHT22;16337;59.536;13.468;2023-03-12T02:34:21;-9.70;99.90
29341;DHT22;16337;59.536;13.468;2023-03-12T02:36:47;-9.70;99.90
29341;DHT22;16337;59.536;13.468;2023-03-12T02:39:14;-9.70;99.90
29341;DHT22;16337;59.536;13.468;2023-03-12T02:41:45;-9.70;99.90
29341;DHT22;16337;59.536;13.468;2023-03-12T02:44:21;-9.70;99.90
29341;DHT22;16337;59.536;13.468;2023-03-12T02:46:51;-9.80;99.90
29341;DHT22;16337;59.536;13.468;2023-03-12T02:49:19;-9.80;99.90
29341;DHT22;16337;59.536;13.468;2023-03-12T02:51:48;-9.80;99.90
29341;DHT22;16337;59.536;13.468;2023-03-12T02:54:15;-9.70;99.90
29341;DHT22;16337;59.536;13.468;2023-03-12T02:56:41;-9.80;99.90
29341;DHT22;16337;59.536;13.468;2023-03-12T02:59:08;-9.80;99.90
29341;DHT22;16337;59.536;13.468;2023-03-12T03:01:34;-9.90;99.90
29341;DHT22;16337;59.536;13.468;2023-03-12T03:04:02;-9.90;99.90
29341;DHT22;16337;59.536;13.468;2023-03-12T03:06:29;-9.90;99.90
29341;DHT22;16337;59.536;13.468;2023-03-12T03:08:55;-9.90;99.90
29341;DHT22;16337;59.536;13.468;2023-03-12T03:11:21;-10.00;99.90
29341;DHT22;16337;59.536;13.468;2023-03-12T03:13:50;-9.90;99.90
29341;DHT22;16337;59.536;13.468;2023-03-12T03:16:16;-9.80;99.90
29341;DHT22;16337;59.536;13.468;2023-03-12T03:18:41;-9.90;99.90
29341;DHT22;16337;59.536;13.468;2023-03-12T03:21:09;-9.80;99.90
29341;DHT22;16337;59.536;13.468;2023-03-12T03:23:36;-9.80;99.90
29341;DHT22;16337;59.536;13.468;2023-03-12T03:26:02;-10.00;99.90
29341;DHT22;16337;59.536;13.468;2023-03-12T03:28:29;-10.10;99.90
29341;DHT22;16337;59.536;13.468;2023-03-12T03:30:56;-10.10;99.90
29341;DHT22;16337;59.536;13.468;2023-03-12T03:33:28;-10.00;99.90
29341;DHT22;16337;59.536;13.468;2023-03-12T03:35:55;-10.10;99.90
29341;DHT22;16337;59.536;13.468;2023-03-12T03:38:22;-10.20;99.90
29341;DHT22;16337;59.536;13.468;2023-03-12T03:40:47;-10.40;99.90
29341;DHT22;16337;59.536;13.468;2023-03-12T03:43:13;-10.40;99.90
29341;DHT22;16337;59.536;13.468;2023-03-12T03:45:39;-10.30;99.90
29341;DHT22;16337;59.536;13.468;2023-03-12T03:48:05;-10.30;99.90
29341;DHT22;16337;59.536;13.468;2023-03-12T03:50:30;-10.20;99.90
29341;DHT22;16337;59.536;13.468;2023-03-12T03:52:57;-10.30;99.90
29341;DHT22;16337;59.536;13.468;2023-03-12T03:55:22;-10.30;99.90
29341;DHT22;16337;59.536;13.468;2023-03-12T03:57:48;-10.40;99.90
29341;DHT22;16337;59.536;13.468;2023-03-12T04:00:14;-10.40;99.90
29341;DHT22;16337;59.536;13.468;2023-03-12T04:02:43;-10.40;99.90
29341;DHT22;16337;59.536;13.468;2023-03-12T04:05:09;-10.30;99.90
29341;DHT22;16337;59.536;13.468;2023-03-12T04:07:35;-10.40;99.90
29341;DHT22;16337;59.536;13.468;2023-03-12T04:10:02;-10.50;99.90
29341;DHT22;16337;59.536;13.468;2023-03-12T04:12:28;-10.40;99.90
29341;DHT22;16337;59.536;13.468;2023-03-12T04:14:54;-10.20;99.90
29341;DHT22;16337;59.536;13.468;2023-03-12T04:17:20;-10.20;99.90
29341;DHT22;16337;59.536;13.468;2023-03-12T04:19:46;-10.00;99.90
29341;DHT22;16337;59.536;13.468;2023-03-12T04:22:12;-10.00;99.90
29341;DHT22;16337;59.536;13.468;2023-03-12T04:24:38;-10.10;99.90
29341;DHT22;16337;59.536;13.468;2023-03-12T04:27:03;-10.00;99.90
29341;DHT22;16337;59.536;13.468;2023-03-12T04:29:29;-10.10;99.90
29341;DHT22;16337;59.536;13.468;2023-03-12T04:31:55;-10.10;99.90
29341;DHT22;16337;59.536;13.468;2023-03-12T04:34:21;-10.10;99.90
29341;DHT22;16337;59.536;13.468;2023-03-12T04:36:46;-10.10;99.90
29341;DHT22;16337;59.536;13.468;2023-03-12T04:39:19;-10.00;99.90
29341;DHT22;16337;59.536;13.468;2023-03-12T04:41:45;-9.90;99.90
29341;DHT22;16337;59.536;13.468;2023-03-12T04:44:11;-9.90;99.90
29341;DHT22;16337;59.536;13.468;2023-03-12T04:46:37;-9.70;99.90
29341;DHT22;16337;59.536;13.468;2023-03-12T04:49:03;-9.60;99.90
29341;DHT22;16337;59.536;13.468;2023-03-12T04:51:30;-9.50;99.90
29341;DHT22;16337;59.536;13.468;2023-03-12T04:53:56;-9.60;99.90
29341;DHT22;16337;59.536;13.468;2023-03-12T04:56:22;-9.70;99.90
29341;DHT22;16337;59.536;13.468;2023-03-12T04:58:48;-9.80;99.90
29341;DHT22;16337;59.536;13.468;2023-03-12T05:01:29;-9.80;99.90
29341;DHT22;16337;59.536;13.468;2023-03-12T05:03:55;-9.90;99.90
29341;DHT22;16337;59.536;13.468;2023-03-12T05:06:22;-9.90;99.90
29341;DHT22;16337;59.536;13.468;2023-03-12T05:08:48;-10.10;99.90
29341;DHT22;16337;59.536;13.468;2023-03-12T05:11:14;-10.20;99.90
29341;DHT22;16337;59.536;13.468;2023-03-12T05:13:41;-10.10;99.90
29341;DHT22;16337;59.536;13.468;2023-03-12T05:16:08;-10.10;99.90
29341;DHT22;16337;59.536;13.468;2023-03-12T05:18:34;-10.20;99.90
29341;DHT22;16337;59.536;13.468;2023-03-12T05:21:12;-10.10;99.90
29341;DHT22;16337;59.536;13.468;2023-03-12T05:23:38;-10.10;99.90
29341;DHT22;16337;59.536;13.468;2023-03-12T05:26:17;-10.20;99.90
29341;DHT22;16337;59.536;13.468;2023-03-12T05:28:43;-10.30;99.90
29341;DHT22;16337;59.536;13.468;2023-03-12T05:31:11;-10.00;99.90
29341;DHT22;16337;59.536;13.468;2023-03-12T05:33:39;-10.00;99.90
29341;DHT22;16337;59.536;13.468;2023-03-12T05:36:05;-9.90;99.90
29341;DHT22;16337;59.536;13.468;2023-03-12T05:38:31;-9.80;99.90
29341;DHT22;16337;59.536;13.468;2023-03-12T05:40:57;-9.70;99.90
29341;DHT22;16337;59.536;13.468;2023-03-12T05:43:26;-9.60;99.90
29341;DHT22;16337;59.536;13.468;2023-03-12T05:45:52;-9.50;99.90
29341;DHT22;16337;59.536;13.468;2023-03-12T05:48:19;-9.50;99.90
29341;DHT22;16337;59.536;13.468;2023-03-12T05:50:45;-9.50;99.90
29341;DHT22;16337;59.536;13.468;2023-03-12T05:53:11;-9.40;99.90
29341;DHT22;16337;59.536;13.468;2023-03-12T05:55:38;-9.20;99.90
29341;DHT22;16337;59.536;13.468;2023-03-12T05:58:05;-9.20;99.90
29341;DHT22;16337;59.536;13.468;2023-03-12T06:00:32;-9.20;99.90
29341;DHT22;16337;59.536;13.468;2023-03-12T06:03:03;-9.30;99.90
29341;DHT22;16337;59.536;13.468;2023-03-12T06:05:30;-9.30;99.90
29341;DHT22;16337;59.536;13.468;2023-03-12T06:07:56;-9.30;99.90
29341;DHT22;16337;59.536;13.468;2023-03-12T06:10:22;-9.30;99.90
29341;DHT22;16337;59.536;13.468;2023-03-12T06:12:48;-9.30;99.90
29341;DHT22;16337;59.536;13.468;2023-03-12T06:15:14;-9.30;99.90
29341;DHT22;16337;59.536;13.468;2023-03-12T06:17:39;-9.20;99.90
29341;DHT22;16337;59.536;13.468;2023-03-12T06:20:06;-9.10;99.90
29341;DHT22;16337;59.536;13.468;2023-03-12T06:22:32;-9.00;99.90
29341;DHT22;16337;59.536;13.468;2023-03-12T06:24:58;-8.90;99.90
29341;DHT22;16337;59.536;13.468;2023-03-12T06:27:24;-8.80;99.90
29341;DHT22;16337;59.536;13.468;2023-03-12T06:29:49;-8.70;99.90
29341;DHT22;16337;59.536;13.468;2023-03-12T06:32:16;-8.70;99.90
29341;DHT22;16337;59.536;13.468;2023-03-12T06:34:43;-8.70;99.90
29341;DHT22;16337;59.536;13.468;2023-03-12T06:37:09;-8.60;99.90
29341;DHT22;16337;59.536;13.468;2023-03-12T06:39:36;-8.50;99.90
29341;DHT22;16337;59.536;13.468;2023-03-12T06:42:02;-8.40;99.90
29341;DHT22;16337;59.536;13.468;2023-03-12T06:44:28;-8.40;99.90
29341;DHT22;16337;59.536;13.468;2023-03-12T06:46:53;-8.30;99.90
29341;DHT22;16337;59.536;13.468;2023-03-12T06:49:19;-8.20;99.90
29341;DHT22;16337;59.536;13.468;2023-03-12T06:51:45;-8.10;99.90
29341;DHT22;16337;59.536;13.468;2023-03-12T06:54:10;-8.00;99.90
29341;DHT22;16337;59.536;13.468;2023-03-12T06:56:36;-7.90;99.90
29341;DHT22;16337;59.536;13.468;2023-03-12T06:59:02;-7.80;99.90
29341;DHT22;16337;59.536;13.468;2023-03-12T07:01:28;-7.70;99.90
29341;DHT22;16337;59.536;13.468;2023-03-12T07:03:54;-7.50;99.90
29341;DHT22;16337;59.536;13.468;2023-03-12T07:06:22;-7.30;99.90
29341;DHT22;16337;59.536;13.468;2023-03-12T07:08:49;-7.10;99.90
29341;DHT22;16337;59.536;13.468;2023-03-12T07:11:15;-6.90;99.90
29341;DHT22;16337;59.536;13.468;2023-03-12T07:13:42;-6.80;99.90
29341;DHT22;16337;59.536;13.468;2023-03-12T07:16:09;-6.60;99.90
29341;DHT22;16337;59.536;13.468;2023-03-12T07:18:35;-6.40;99.90
29341;DHT22;16337;59.536;13.468;2023-03-12T07:21:00;-6.30;99.90
29341;DHT22;16337;59.536;13.468;2023-03-12T07:23:26;-6.20;99.90
29341;DHT22;16337;59.536;13.468;2023-03-12T07:25:52;-6.00;99.90
29341;DHT22;16337;59.536;13.468;2023-03-12T07:28:18;-5.90;99.90
29341;DHT22;16337;59.536;13.468;2023-03-12T07:30:45;-5.70;99.90
29341;DHT22;16337;59.536;13.468;2023-03-12T07:33:19;-5.40;99.90
29341;DHT22;16337;59.536;13.468;2023-03-12T07:35:46;-5.20;99.90
29341;DHT22;16337;59.536;13.468;2023-03-12T07:38:12;-5.10;99.90
29341;DHT22;16337;59.536;13.468;2023-03-12T07:40:38;-4.80;99.90
29341;DHT22;16337;59.536;13.468;2023-03-12T07:43:05;-4.60;99.90
29341;DHT22;16337;59.536;13.468;2023-03-12T07:45:36;-4.40;99.90
29341;DHT22;16337;59.536;13.468;2023-03-12T07:48:02;-4.20;99.90
29341;DHT22;16337;59.536;13.468;2023-03-12T07:50:28;-4.10;99.90
29341;DHT22;16337;59.536;13.468;2023-03-12T07:52:54;-3.90;99.90
29341;DHT22;16337;59.536;13.468;2023-03-12T07:55:20;-3.70;99.90
29341;DHT22;16337;59.536;13.468;2023-03-12T07:57:46;-3.50;99.90
29341;DHT22;16337;59.536;13.468;2023-03-12T08:00:12;-3.40;99.90
29341;DHT22;16337;59.536;13.468;2023-03-12T08:02:38;-3.30;99.90
29341;DHT22;16337;59.536;13.468;2023-03-12T08:05:04;-3.30;99.90
29341;DHT22;16337;59.536;13.468;2023-03-12T08:07:30;-3.20;99.90
29341;DHT22;16337;59.536;13.468;2023-03-12T08:10:00;-3.00;99.90
29341;DHT22;16337;59.536;13.468;2023-03-12T08:12:27;-2.90;99.90
29341;DHT22;16337;59.536;13.468;2023-03-12T08:14:53;-2.70;99.90
29341;DHT22;16337;59.536;13.468;2023-03-12T08:17:19;-2.60;99.90
29341;DHT22;16337;59.536;13.468;2023-03-12T08:19:45;-2.40;99.90
29341;DHT22;16337;59.536;13.468;2023-03-12T08:22:11;-2.20;99.90
29341;DHT22;16337;59.536;13.468;2023-03-12T08:24:36;-2.00;99.90
29341;DHT22;16337;59.536;13.468;2023-03-12T08:27:02;-1.80;99.90
29341;DHT22;16337;59.536;13.468;2023-03-12T08:29:28;-1.60;99.90
29341;DHT22;16337;59.536;13.468;2023-03-12T08:31:54;-1.60;99.90
29341;DHT22;16337;59.536;13.468;2023-03-12T08:34:20;-1.40;99.90
29341;DHT22;16337;59.536;13.468;2023-03-12T08:36:46;-1.20;99.90
29341;DHT22;16337;59.536;13.468;2023-03-12T08:39:11;-1.00;99.90
29341;DHT22;16337;59.536;13.468;2023-03-12T08:41:37;-0.80;99.90
29341;DHT22;16337;59.536;13.468;2023-03-12T08:44:03;-0.90;99.90
29341;DHT22;16337;59.536;13.468;2023-03-12T08:46:29;-0.70;99.90
29341;DHT22;16337;59.536;13.468;2023-03-12T08:48:54;-0.60;99.90
29341;DHT22;16337;59.536;13.468;2023-03-12T08:51:20;-0.40;99.90
29341;DHT22;16337;59.536;13.468;2023-03-12T08:53:46;-0.20;99.90
29341;DHT22;16337;59.536;13.468;2023-03-12T08:56:12;0.00;99.90
29341;DHT22;16337;59.536;13.468;2023-03-12T08:58:38;0.00;99.90
29341;DHT22;16337;59.536;13.468;2023-03-12T09:01:11;0.10;99.90
29341;DHT22;16337;59.536;13.468;2023-03-12T09:03:37;0.10;98.70
29341;DHT22;16337;59.536;13.468;2023-03-12T09:06:11;0.50;99.90
29341;DHT22;16337;59.536;13.468;2023-03-12T09:08:40;0.70;99.90
29341;DHT22;16337;59.536;13.468;2023-03-12T09:11:09;1.00;98.70
29341;DHT22;16337;59.536;13.468;2023-03-12T09:13:35;1.00;98.40
29341;DHT22;16337;59.536;13.468;2023-03-12T09:16:02;0.80;97.20
29341;DHT22;16337;59.536;13.468;2023-03-12T09:18:32;1.10;97.10
29341;DHT22;16337;59.536;13.468;2023-03-12T09:20:58;1.30;98.30
29341;DHT22;16337;59.536;13.468;2023-03-12T09:23:26;1.40;96.20
29341;DHT22;16337;59.536;13.468;2023-03-12T09:25:52;1.10;96.20
29341;DHT22;16337;59.536;13.468;2023-03-12T09:28:19;1.30;95.90
29341;DHT22;16337;59.536;13.468;2023-03-12T09:30:45;1.10;95.40
29341;DHT22;16337;59.536;13.468;2023-03-12T09:33:11;1.50;96.50
29341;DHT22;16337;59.536;13.468;2023-03-12T09:35:40;1.70;95.60
29341;DHT22;16337;59.536;13.468;2023-03-12T09:38:06;2.00;94.30
29341;DHT22;16337;59.536;13.468;2023-03-12T09:40:33;2.20;92.90
29341;DHT22;16337;59.536;13.468;2023-03-12T09:43:18;2.00;94.10
29341;DHT22;16337;59.536;13.468;2023-03-12T09:45:47;1.70;92.60
29341;DHT22;16337;59.536;13.468;2023-03-12T09:48:19;1.90;95.60
29341;DHT22;16337;59.536;13.468;2023-03-12T09:50:48;2.20;92.70
29341;DHT22;16337;59.536;13.468;2023-03-12T09:53:24;2.00;92.70
29341;DHT22;16337;59.536;13.468;2023-03-12T09:55:52;2.20;90.70
29341;DHT22;16337;59.536;13.468;2023-03-12T09:58:29;2.40;92.30
29341;DHT22;16337;59.536;13.468;2023-03-12T10:04:40;2.80;92.50
29341;DHT22;16337;59.536;13.468;2023-03-12T10:15:30;3.30;90.30
29341;DHT22;16337;59.536;13.468;2023-03-12T10:18:24;3.30;88.50
29341;DHT22;16337;59.536;13.468;2023-03-12T10:26:15;3.60;90.70
29341;DHT22;16337;59.536;13.468;2023-03-12T10:28:47;3.90;89.60
29341;DHT22;16337;59.536;13.468;2023-03-12T10:31:24;3.90;86.10
29341;DHT22;16337;59.536;13.468;2023-03-12T10:33:54;3.90;88.00
29341;DHT22;16337;59.536;13.468;2023-03-12T10:38:58;3.70;90.30
29341;DHT22;16337;59.536;13.468;2023-03-12T10:41:28;3.30;85.30
29341;DHT22;16337;59.536;13.468;2023-03-12T10:43:57;3.50;90.20
29341;DHT22;16337;59.536;13.468;2023-03-12T10:47:09;3.50;85.90
29341;DHT22;16337;59.536;13.468;2023-03-12T10:49:32;3.60;89.00
29341;DHT22;16337;59.536;13.468;2023-03-12T10:52:15;3.60;82.70
29341;DHT22;16337;59.536;13.468;2023-03-12T10:54:42;3.90;87.20
29341;DHT22;16337;59.536;13.468;2023-03-12T10:57:10;4.00;84.40
29341;DHT22;16337;59.536;13.468;2023-03-12T10:59:39;4.10;82.80
29341;DHT22;16337;59.536;13.468;2023-03-12T11:02:39;4.00;84.70
29341;DHT22;16337;59.536;13.468;2023-03-12T11:07:55;3.90;80.50
29341;DHT22;16337;59.536;13.468;2023-03-12T11:10:41;3.70;83.30
29341;DHT22;16337;59.536;13.468;2023-03-12T11:13:23;3.50;82.60
29341;DHT22;16337;59.536;13.468;2023-03-12T11:15:50;3.50;82.90
29341;DHT22;16337;59.536;13.468;2023-03-12T11:20:52;3.50;82.50
29341;DHT22;16337;59.536;13.468;2023-03-12T11:23:29;3.30;81.10
29341;DHT22;16337;59.536;13.468;2023-03-12T11:26:09;3.50;82.70
29341;DHT22;16337;59.536;13.468;2023-03-12T11:28:51;3.90;83.60
29341;DHT22;16337;59.536;13.468;2023-03-12T11:31:28;4.10;80.60
29341;DHT22;16337;59.536;13.468;2023-03-12T11:34:04;4.20;77.80
29341;DHT22;16337;59.536;13.468;2023-03-12T11:39:17;4.40;80.20
29341;DHT22;16337;59.536;13.468;2023-03-12T11:41:55;4.40;78.10
29341;DHT22;16337;59.536;13.468;2023-03-12T11:44:29;4.50;78.00
29341;DHT22;16337;59.536;13.468;2023-03-12T11:47:23;4.50;77.10
29341;DHT22;16337;59.536;13.468;2023-03-12T11:50:12;4.70;80.10
29341;DHT22;16337;59.536;13.468;2023-03-12T11:53:07;4.80;78.60
29341;DHT22;16337;59.536;13.468;2023-03-12T12:19:48;4.40;70.30
29341;DHT22;16337;59.536;13.468;2023-03-12T12:22:54;4.20;72.00
29341;DHT22;16337;59.536;13.468;2023-03-12T12:36:13;3.30;76.40
29341;DHT22;16337;59.536;13.468;2023-03-12T12:39:04;3.60;75.60
29341;DHT22;16337;59.536;13.468;2023-03-12T12:41:51;3.80;75.40
29341;DHT22;16337;59.536;13.468;2023-03-12T12:44:22;3.50;78.00
29341;DHT22;16337;59.536;13.468;2023-03-12T12:46:54;3.90;75.00
29341;DHT22;16337;59.536;13.468;2023-03-12T12:49:30;3.90;72.10
29341;DHT22;16337;59.536;13.468;2023-03-12T12:52:04;3.70;71.50
29341;DHT22;16337;59.536;13.468;2023-03-12T12:57:44;3.80;72.30
29341;DHT22;16337;59.536;13.468;2023-03-12T13:00:23;3.70;76.40
29341;DHT22;16337;59.536;13.468;2023-03-12T13:02:55;4.00;74.20
29341;DHT22;16337;59.536;13.468;2023-03-12T13:05:24;4.00;71.50
29341;DHT22;16337;59.536;13.468;2023-03-12T13:07:51;3.80;74.60
29341;DHT22;16337;59.536;13.468;2023-03-12T13:13:12;3.40;77.10
29341;DHT22;16337;59.536;13.468;2023-03-12T13:15:42;3.40;77.10
29341;DHT22;16337;59.536;13.468;2023-03-12T13:18:27;3.70;76.90
29341;DHT22;16337;59.536;13.468;2023-03-12T13:26:22;4.00;74.00
29341;DHT22;16337;59.536;13.468;2023-03-12T13:33:59;3.40;73.00
29341;DHT22;16337;59.536;13.468;2023-03-12T13:36:36;3.20;76.60
29341;DHT22;16337;59.536;13.468;2023-03-12T13:49:56;3.30;73.30
29341;DHT22;16337;59.536;13.468;2023-03-12T13:55:28;3.10;74.20
29341;DHT22;16337;59.536;13.468;2023-03-12T14:01:03;3.00;73.70
29341;DHT22;16337;59.536;13.468;2023-03-12T14:03:40;2.90;76.80
29341;DHT22;16337;59.536;13.468;2023-03-12T14:06:09;2.90;73.70
29341;DHT22;16337;59.536;13.468;2023-03-12T14:16:47;2.50;78.60
29341;DHT22;16337;59.536;13.468;2023-03-12T14:19:18;2.80;76.00
29341;DHT22;16337;59.536;13.468;2023-03-12T14:21:48;2.80;76.90
29341;DHT22;16337;59.536;13.468;2023-03-12T14:24:27;2.80;73.50
29341;DHT22;16337;59.536;13.468;2023-03-12T14:26:54;2.60;74.90
29341;DHT22;16337;59.536;13.468;2023-03-12T14:31:56;2.40;76.60
29341;DHT22;16337;59.536;13.468;2023-03-12T14:34:29;2.30;75.30
29341;DHT22;16337;59.536;13.468;2023-03-12T14:37:03;2.20;76.80
29341;DHT22;16337;59.536;13.468;2023-03-12T14:39:40;2.00;78.20
29341;DHT22;16337;59.536;13.468;2023-03-12T14:42:08;2.10;77.50
29341;DHT22;16337;59.536;13.468;2023-03-12T14:44:36;2.00;77.00
29341;DHT22;16337;59.536;13.468;2023-03-12T14:47:08;1.90;78.40
29341;DHT22;16337;59.536;13.468;2023-03-12T14:49:45;1.90;78.70
29341;DHT22;16337;59.536;13.468;2023-03-12T14:52:12;1.80;78.40
29341;DHT22;16337;59.536;13.468;2023-03-12T14:54:39;1.50;76.10
29341;DHT22;16337;59.536;13.468;2023-03-12T14:57:12;1.40;76.00
29341;DHT22;16337;59.536;13.468;2023-03-12T14:59:51;1.20;77.30
29341;DHT22;16337;59.536;13.468;2023-03-12T15:02:18;1.20;77.80
29341;DHT22;16337;59.536;13.468;2023-03-12T15:04:46;1.10;77.00
29341;DHT22;16337;59.536;13.468;2023-03-12T15:07:15;1.00;75.10
29341;DHT22;16337;59.536;13.468;2023-03-12T15:09:45;1.00;76.50
29341;DHT22;16337;59.536;13.468;2023-03-12T15:12:25;0.90;77.80
29341;DHT22;16337;59.536;13.468;2023-03-12T15:14:55;0.80;79.30
29341;DHT22;16337;59.536;13.468;2023-03-12T15:17:26;0.80;77.20
29341;DHT22;16337;59.536;13.468;2023-03-12T15:19:53;0.90;78.50
29341;DHT22;16337;59.536;13.468;2023-03-12T15:22:24;0.80;77.50
29341;DHT22;16337;59.536;13.468;2023-03-12T15:24:52;0.70;79.70
29341;DHT22;16337;59.536;13.468;2023-03-12T15:29:53;0.50;83.80
29341;DHT22;16337;59.536;13.468;2023-03-12T15:32:22;0.50;80.50
29341;DHT22;16337;59.536;13.468;2023-03-12T15:34:52;0.40;78.30
29341;DHT22;16337;59.536;13.468;2023-03-12T15:40:07;0.30;80.30
29341;DHT22;16337;59.536;13.468;2023-03-12T15:42:42;0.10;80.10
29341;DHT22;16337;59.536;13.468;2023-03-12T15:45:25;0.00;77.20
29341;DHT22;16337;59.536;13.468;2023-03-12T15:47:54;-0.10;87.30
29341;DHT22;16337;59.536;13.468;2023-03-12T15:50:28;-0.20;88.60
29341;DHT22;16337;59.536;13.468;2023-03-12T15:53:21;-0.30;92.80
29341;DHT22;16337;59.536;13.468;2023-03-12T15:58:33;-0.50;90.80
29341;DHT22;16337;59.536;13.468;2023-03-12T16:01:19;-0.70;94.80
29341;DHT22;16337;59.536;13.468;2023-03-12T16:03:52;-0.80;96.00
29341;DHT22;16337;59.536;13.468;2023-03-12T16:06:20;-1.00;95.90
29341;DHT22;16337;59.536;13.468;2023-03-12T16:08:49;-1.20;98.30
29341;DHT22;16337;59.536;13.468;2023-03-12T16:11:20;-1.30;98.30
29341;DHT22;16337;59.536;13.468;2023-03-12T16:13:48;-1.50;99.30
29341;DHT22;16337;59.536;13.468;2023-03-12T16:16:15;-1.70;98.30
29341;DHT22;16337;59.536;13.468;2023-03-12T16:18:42;-1.90;99.90
29341;DHT22;16337;59.536;13.468;2023-03-12T16:21:08;-2.00;99.90
29341;DHT22;16337;59.536;13.468;2023-03-12T16:23:35;-2.20;99.90
29341;DHT22;16337;59.536;13.468;2023-03-12T16:26:03;-2.40;99.90
29341;DHT22;16337;59.536;13.468;2023-03-12T16:28:29;-2.50;99.90
29341;DHT22;16337;59.536;13.468;2023-03-12T16:30:55;-2.50;99.90
29341;DHT22;16337;59.536;13.468;2023-03-12T16:33:23;-2.60;99.90
29341;DHT22;16337;59.536;13.468;2023-03-12T16:35:49;-2.70;99.90
29341;DHT22;16337;59.536;13.468;2023-03-12T16:38:15;-2.80;99.90
29341;DHT22;16337;59.536;13.468;2023-03-12T16:40:46;-3.00;99.90
29341;DHT22;16337;59.536;13.468;2023-03-12T16:43:19;-3.20;99.90
29341;DHT22;16337;59.536;13.468;2023-03-12T16:45:46;-3.30;99.90
29341;DHT22;16337;59.536;13.468;2023-03-12T16:48:18;-3.40;99.90
29341;DHT22;16337;59.536;13.468;2023-03-12T16:50:50;-3.50;99.90
29341;DHT22;16337;59.536;13.468;2023-03-12T16:53:17;-3.60;99.90
29341;DHT22;16337;59.536;13.468;2023-03-12T16:55:54;-3.70;99.90
29341;DHT22;16337;59.536;13.468;2023-03-12T16:58:22;-3.90;99.90
29341;DHT22;16337;59.536;13.468;2023-03-12T17:00:49;-4.00;99.90
29341;DHT22;16337;59.536;13.468;2023-03-12T17:03:25;-4.20;99.90
29341;DHT22;16337;59.536;13.468;2023-03-12T17:05:52;-4.30;99.90
29341;DHT22;16337;59.536;13.468;2023-03-12T17:08:17;-4.40;99.90
29341;DHT22;16337;59.536;13.468;2023-03-12T17:10:43;-4.50;99.90
29341;DHT22;16337;59.536;13.468;2023-03-12T17:13:28;-4.60;99.90
29341;DHT22;16337;59.536;13.468;2023-03-12T17:15:54;-4.70;99.90
29341;DHT22;16337;59.536;13.468;2023-03-12T17:18:21;-4.80;99.90
29341;DHT22;16337;59.536;13.468;2023-03-12T17:20:48;-4.80;99.90
29341;DHT22;16337;59.536;13.468;2023-03-12T17:23:16;-4.80;99.90
29341;DHT22;16337;59.536;13.468;2023-03-12T17:25:42;-4.90;99.90
29341;DHT22;16337;59.536;13.468;2023-03-12T17:28:09;-5.00;99.90
29341;DHT22;16337;59.536;13.468;2023-03-12T17:30:36;-5.00;99.90
29341;DHT22;16337;59.536;13.468;2023-03-12T17:33:04;-5.10;99.90
29341;DHT22;16337;59.536;13.468;2023-03-12T17:35:30;-5.10;99.90
29341;DHT22;16337;59.536;13.468;2023-03-12T17:37:56;-5.10;99.90